Terminal Aerodrome Forecast
Issued by NWS Amarillo, TX

Home | Current Version | Previous Version | Text Only | Print | Product List | Glossary On
Versions: 1 2 3 4 5 6 7 8 9 10 11 12 13 14
501
FTUS44 KAMA 270520
TAFGUY
TAF
KGUY 270520Z 2706/2806 33006KT P6SM SKC
     FM271200 27010KT P6SM SKC
     FM271800 20010KT P6SM SKC=

USA.gov is the U.S. government's official web portal to all federal, state and local government web resources and services.